<?xml version="1.0" encoding="UTF-8" standalone="no" ?>
<gpx xmlns="http://www.topografix.com/GPX/1/1" xmlns:xsi="http://www.w3.org/2001/XMLSchema-instance" xsi:schemaLocation="http://www.topografix.com/GPX/1/1 http://www.topografix.com/GPX/1/1/gpx.xsd" version="1.1" creator="VisuGPX - https://www.visugpx.com">
  <metadata>
    <name>Course à pied dans l'après-midi</name>
  </metadata>
  <trk>
    <name><![CDATA[Course à pied dans l'après-midi_1]]></name>
    <trkseg>
      <trkpt lat="48.75681" lon="6.95622">
        <ele>269.8</ele>
        <time>2023-11-05T16:37:19Z</time>
      </trkpt>
      <trkpt lat="48.75678" lon="6.95618">
        <ele>269.7</ele>
        <time>2023-11-05T16:37:21Z</time>
      </trkpt>
      <trkpt lat="48.7568" lon="6.95588">
        <ele>269.1</ele>
        <time>2023-11-05T16:37:27Z</time>
      </trkpt>
      <trkpt lat="48.75685" lon="6.95561">
        <ele>268.6</ele>
        <time>2023-11-05T16:37:33Z</time>
      </trkpt>
      <trkpt lat="48.75695" lon="6.95534">
        <ele>268.1</ele>
        <time>2023-11-05T16:37:40Z</time>
      </trkpt>
      <trkpt lat="48.75704" lon="6.95512">
        <ele>267.8</ele>
        <time>2023-11-05T16:37:46Z</time>
      </trkpt>
      <trkpt lat="48.757" lon="6.95505">
        <ele>267.3</ele>
        <time>2023-11-05T16:37:48Z</time>
      </trkpt>
      <trkpt lat="48.75693" lon="6.9548">
        <ele>266.2</ele>
        <time>2023-11-05T16:37:54Z</time>
      </trkpt>
      <trkpt lat="48.75689" lon="6.95469">
        <ele>265.8</ele>
        <time>2023-11-05T16:37:58Z</time>
      </trkpt>
      <trkpt lat="48.75668" lon="6.95469">
        <ele>265.9</ele>
        <time>2023-11-05T16:38:06Z</time>
      </trkpt>
      <trkpt lat="48.75649" lon="6.95473">
        <ele>266.2</ele>
        <time>2023-11-05T16:38:13Z</time>
      </trkpt>
      <trkpt lat="48.75632" lon="6.95483">
        <ele>266.4</ele>
        <time>2023-11-05T16:38:20Z</time>
      </trkpt>
      <trkpt lat="48.75613" lon="6.9549">
        <ele>266.5</ele>
        <time>2023-11-05T16:38:27Z</time>
      </trkpt>
      <trkpt lat="48.75595" lon="6.95495">
        <ele>266.7</ele>
        <time>2023-11-05T16:38:35Z</time>
      </trkpt>
      <trkpt lat="48.75575" lon="6.955">
        <ele>266.8</ele>
        <time>2023-11-05T16:38:43Z</time>
      </trkpt>
      <trkpt lat="48.75555" lon="6.95504">
        <ele>266.7</ele>
        <time>2023-11-05T16:38:50Z</time>
      </trkpt>
      <trkpt lat="48.75536" lon="6.95507">
        <ele>266.4</ele>
        <time>2023-11-05T16:38:57Z</time>
      </trkpt>
      <trkpt lat="48.75515" lon="6.95512">
        <ele>265.8</ele>
        <time>2023-11-05T16:39:04Z</time>
      </trkpt>
      <trkpt lat="48.75496" lon="6.95518">
        <ele>265.3</ele>
        <time>2023-11-05T16:39:10Z</time>
      </trkpt>
      <trkpt lat="48.75492" lon="6.95521">
        <ele>265.2</ele>
        <time>2023-11-05T16:39:18Z</time>
      </trkpt>
      <trkpt lat="48.75486" lon="6.95521">
        <ele>265.1</ele>
        <time>2023-11-05T16:39:21Z</time>
      </trkpt>
      <trkpt lat="48.75469" lon="6.95505">
        <ele>265</ele>
        <time>2023-11-05T16:39:28Z</time>
      </trkpt>
      <trkpt lat="48.75452" lon="6.95487">
        <ele>264.5</ele>
        <time>2023-11-05T16:39:34Z</time>
      </trkpt>
      <trkpt lat="48.75436" lon="6.95471">
        <ele>263.8</ele>
        <time>2023-11-05T16:39:40Z</time>
      </trkpt>
      <trkpt lat="48.7542" lon="6.95456">
        <ele>262.9</ele>
        <time>2023-11-05T16:39:46Z</time>
      </trkpt>
      <trkpt lat="48.75403" lon="6.95439">
        <ele>261.6</ele>
        <time>2023-11-05T16:39:52Z</time>
      </trkpt>
      <trkpt lat="48.75387" lon="6.95422">
        <ele>260.7</ele>
        <time>2023-11-05T16:39:58Z</time>
      </trkpt>
      <trkpt lat="48.7537" lon="6.95406">
        <ele>260.2</ele>
        <time>2023-11-05T16:40:04Z</time>
      </trkpt>
      <trkpt lat="48.75355" lon="6.95388">
        <ele>259.9</ele>
        <time>2023-11-05T16:40:10Z</time>
      </trkpt>
      <trkpt lat="48.7534" lon="6.95368">
        <ele>259.7</ele>
        <time>2023-11-05T16:40:17Z</time>
      </trkpt>
      <trkpt lat="48.75322" lon="6.95353">
        <ele>259.6</ele>
        <time>2023-11-05T16:40:24Z</time>
      </trkpt>
      <trkpt lat="48.75302" lon="6.95357">
        <ele>259.6</ele>
        <time>2023-11-05T16:40:32Z</time>
      </trkpt>
      <trkpt lat="48.75284" lon="6.95365">
        <ele>259.6</ele>
        <time>2023-11-05T16:40:39Z</time>
      </trkpt>
      <trkpt lat="48.75264" lon="6.95372">
        <ele>259.6</ele>
        <time>2023-11-05T16:40:46Z</time>
      </trkpt>
      <trkpt lat="48.75243" lon="6.95373">
        <ele>259.7</ele>
        <time>2023-11-05T16:40:53Z</time>
      </trkpt>
      <trkpt lat="48.75224" lon="6.95377">
        <ele>259.7</ele>
        <time>2023-11-05T16:41:00Z</time>
      </trkpt>
      <trkpt lat="48.75204" lon="6.9538">
        <ele>259.8</ele>
        <time>2023-11-05T16:41:07Z</time>
      </trkpt>
      <trkpt lat="48.75184" lon="6.95383">
        <ele>259.8</ele>
        <time>2023-11-05T16:41:14Z</time>
      </trkpt>
      <trkpt lat="48.75166" lon="6.95387">
        <ele>259.8</ele>
        <time>2023-11-05T16:41:20Z</time>
      </trkpt>
      <trkpt lat="48.75146" lon="6.9539">
        <ele>259.8</ele>
        <time>2023-11-05T16:41:27Z</time>
      </trkpt>
      <trkpt lat="48.75127" lon="6.95394">
        <ele>259.9</ele>
        <time>2023-11-05T16:41:34Z</time>
      </trkpt>
      <trkpt lat="48.75109" lon="6.95398">
        <ele>259.9</ele>
        <time>2023-11-05T16:41:41Z</time>
      </trkpt>
      <trkpt lat="48.75088" lon="6.95403">
        <ele>259.9</ele>
        <time>2023-11-05T16:41:48Z</time>
      </trkpt>
      <trkpt lat="48.75068" lon="6.95406">
        <ele>259.9</ele>
        <time>2023-11-05T16:41:55Z</time>
      </trkpt>
      <trkpt lat="48.75048" lon="6.95407">
        <ele>259.9</ele>
        <time>2023-11-05T16:42:02Z</time>
      </trkpt>
      <trkpt lat="48.75029" lon="6.95404">
        <ele>260</ele>
        <time>2023-11-05T16:42:09Z</time>
      </trkpt>
      <trkpt lat="48.75018" lon="6.95382">
        <ele>260.1</ele>
        <time>2023-11-05T16:42:15Z</time>
      </trkpt>
      <trkpt lat="48.7501" lon="6.95354">
        <ele>260</ele>
        <time>2023-11-05T16:42:22Z</time>
      </trkpt>
      <trkpt lat="48.75004" lon="6.95328">
        <ele>259.9</ele>
        <time>2023-11-05T16:42:28Z</time>
      </trkpt>
      <trkpt lat="48.74993" lon="6.95301">
        <ele>259.7</ele>
        <time>2023-11-05T16:42:35Z</time>
      </trkpt>
      <trkpt lat="48.7498" lon="6.95281">
        <ele>259.7</ele>
        <time>2023-11-05T16:42:42Z</time>
      </trkpt>
      <trkpt lat="48.74964" lon="6.95264">
        <ele>259.7</ele>
        <time>2023-11-05T16:42:49Z</time>
      </trkpt>
      <trkpt lat="48.74948" lon="6.95247">
        <ele>259.7</ele>
        <time>2023-11-05T16:42:56Z</time>
      </trkpt>
      <trkpt lat="48.74934" lon="6.95229">
        <ele>259.5</ele>
        <time>2023-11-05T16:43:02Z</time>
      </trkpt>
      <trkpt lat="48.74919" lon="6.95213">
        <ele>259.4</ele>
        <time>2023-11-05T16:43:08Z</time>
      </trkpt>
      <trkpt lat="48.74904" lon="6.95196">
        <ele>259.4</ele>
        <time>2023-11-05T16:43:14Z</time>
      </trkpt>
      <trkpt lat="48.74889" lon="6.95178">
        <ele>259.3</ele>
        <time>2023-11-05T16:43:21Z</time>
      </trkpt>
      <trkpt lat="48.74874" lon="6.95162">
        <ele>259.3</ele>
        <time>2023-11-05T16:43:28Z</time>
      </trkpt>
      <trkpt lat="48.74861" lon="6.95139">
        <ele>259.4</ele>
        <time>2023-11-05T16:43:35Z</time>
      </trkpt>
      <trkpt lat="48.74862" lon="6.95108">
        <ele>259.5</ele>
        <time>2023-11-05T16:43:42Z</time>
      </trkpt>
      <trkpt lat="48.74871" lon="6.95082">
        <ele>259.7</ele>
        <time>2023-11-05T16:43:49Z</time>
      </trkpt>
      <trkpt lat="48.74875" lon="6.95054">
        <ele>260.6</ele>
        <time>2023-11-05T16:43:58Z</time>
      </trkpt>
      <trkpt lat="48.74867" lon="6.95027">
        <ele>262.2</ele>
        <time>2023-11-05T16:44:06Z</time>
      </trkpt>
      <trkpt lat="48.74848" lon="6.95016">
        <ele>263.5</ele>
        <time>2023-11-05T16:44:13Z</time>
      </trkpt>
      <trkpt lat="48.74831" lon="6.95006">
        <ele>264.4</ele>
        <time>2023-11-05T16:44:20Z</time>
      </trkpt>
      <trkpt lat="48.74813" lon="6.94993">
        <ele>265.4</ele>
        <time>2023-11-05T16:44:27Z</time>
      </trkpt>
      <trkpt lat="48.74797" lon="6.94977">
        <ele>266.4</ele>
        <time>2023-11-05T16:44:34Z</time>
      </trkpt>
      <trkpt lat="48.7478" lon="6.94958">
        <ele>267</ele>
        <time>2023-11-05T16:44:41Z</time>
      </trkpt>
      <trkpt lat="48.74762" lon="6.94952">
        <ele>267.5</ele>
        <time>2023-11-05T16:44:48Z</time>
      </trkpt>
      <trkpt lat="48.74743" lon="6.94953">
        <ele>267.9</ele>
        <time>2023-11-05T16:44:55Z</time>
      </trkpt>
      <trkpt lat="48.74724" lon="6.94957">
        <ele>268.4</ele>
        <time>2023-11-05T16:45:02Z</time>
      </trkpt>
      <trkpt lat="48.74704" lon="6.94964">
        <ele>268.9</ele>
        <time>2023-11-05T16:45:10Z</time>
      </trkpt>
      <trkpt lat="48.74685" lon="6.94971">
        <ele>269.3</ele>
        <time>2023-11-05T16:45:18Z</time>
      </trkpt>
      <trkpt lat="48.74666" lon="6.94976">
        <ele>269.7</ele>
        <time>2023-11-05T16:45:25Z</time>
      </trkpt>
      <trkpt lat="48.74648" lon="6.94979">
        <ele>270.1</ele>
        <time>2023-11-05T16:45:32Z</time>
      </trkpt>
      <trkpt lat="48.74628" lon="6.94981">
        <ele>270.5</ele>
        <time>2023-11-05T16:45:39Z</time>
      </trkpt>
      <trkpt lat="48.74607" lon="6.9498">
        <ele>270.8</ele>
        <time>2023-11-05T16:45:46Z</time>
      </trkpt>
      <trkpt lat="48.74588" lon="6.94979">
        <ele>270.9</ele>
        <time>2023-11-05T16:45:52Z</time>
      </trkpt>
      <trkpt lat="48.74569" lon="6.94972">
        <ele>271</ele>
        <time>2023-11-05T16:45:58Z</time>
      </trkpt>
      <trkpt lat="48.74552" lon="6.94963">
        <ele>271</ele>
        <time>2023-11-05T16:46:04Z</time>
      </trkpt>
      <trkpt lat="48.74533" lon="6.94954">
        <ele>270.9</ele>
        <time>2023-11-05T16:46:10Z</time>
      </trkpt>
      <trkpt lat="48.74516" lon="6.94939">
        <ele>270.8</ele>
        <time>2023-11-05T16:46:16Z</time>
      </trkpt>
      <trkpt lat="48.745" lon="6.94923">
        <ele>270.7</ele>
        <time>2023-11-05T16:46:22Z</time>
      </trkpt>
      <trkpt lat="48.74483" lon="6.94909">
        <ele>270.6</ele>
        <time>2023-11-05T16:46:28Z</time>
      </trkpt>
      <trkpt lat="48.74466" lon="6.94893">
        <ele>270.6</ele>
        <time>2023-11-05T16:46:35Z</time>
      </trkpt>
      <trkpt lat="48.74449" lon="6.94883">
        <ele>270.8</ele>
        <time>2023-11-05T16:46:42Z</time>
      </trkpt>
      <trkpt lat="48.74431" lon="6.94871">
        <ele>270.9</ele>
        <time>2023-11-05T16:46:50Z</time>
      </trkpt>
      <trkpt lat="48.74414" lon="6.94861">
        <ele>270.8</ele>
        <time>2023-11-05T16:46:57Z</time>
      </trkpt>
      <trkpt lat="48.74396" lon="6.94852">
        <ele>270.8</ele>
        <time>2023-11-05T16:47:04Z</time>
      </trkpt>
      <trkpt lat="48.74378" lon="6.94843">
        <ele>270.8</ele>
        <time>2023-11-05T16:47:11Z</time>
      </trkpt>
      <trkpt lat="48.74361" lon="6.94828">
        <ele>270.9</ele>
        <time>2023-11-05T16:47:20Z</time>
      </trkpt>
      <trkpt lat="48.74345" lon="6.94815">
        <ele>271</ele>
        <time>2023-11-05T16:47:27Z</time>
      </trkpt>
      <trkpt lat="48.74325" lon="6.94805">
        <ele>271.1</ele>
        <time>2023-11-05T16:47:34Z</time>
      </trkpt>
      <trkpt lat="48.74308" lon="6.94794">
        <ele>271.2</ele>
        <time>2023-11-05T16:47:40Z</time>
      </trkpt>
      <trkpt lat="48.74291" lon="6.94783">
        <ele>271.3</ele>
        <time>2023-11-05T16:47:45Z</time>
      </trkpt>
      <trkpt lat="48.74273" lon="6.94769">
        <ele>271.4</ele>
        <time>2023-11-05T16:47:51Z</time>
      </trkpt>
      <trkpt lat="48.74255" lon="6.94757">
        <ele>271.5</ele>
        <time>2023-11-05T16:47:56Z</time>
      </trkpt>
      <trkpt lat="48.7424" lon="6.94743">
        <ele>271.6</ele>
        <time>2023-11-05T16:48:01Z</time>
      </trkpt>
      <trkpt lat="48.74222" lon="6.94725">
        <ele>271.6</ele>
        <time>2023-11-05T16:48:07Z</time>
      </trkpt>
      <trkpt lat="48.74207" lon="6.94707">
        <ele>271.5</ele>
        <time>2023-11-05T16:48:13Z</time>
      </trkpt>
      <trkpt lat="48.74192" lon="6.9469">
        <ele>271.6</ele>
        <time>2023-11-05T16:48:19Z</time>
      </trkpt>
      <trkpt lat="48.74175" lon="6.94674">
        <ele>271.6</ele>
        <time>2023-11-05T16:48:25Z</time>
      </trkpt>
      <trkpt lat="48.74159" lon="6.94658">
        <ele>271.6</ele>
        <time>2023-11-05T16:48:31Z</time>
      </trkpt>
      <trkpt lat="48.74144" lon="6.94641">
        <ele>271.6</ele>
        <time>2023-11-05T16:48:37Z</time>
      </trkpt>
      <trkpt lat="48.7413" lon="6.94623">
        <ele>271.6</ele>
        <time>2023-11-05T16:48:43Z</time>
      </trkpt>
      <trkpt lat="48.74114" lon="6.94602">
        <ele>271.6</ele>
        <time>2023-11-05T16:48:50Z</time>
      </trkpt>
      <trkpt lat="48.74099" lon="6.9458">
        <ele>271.6</ele>
        <time>2023-11-05T16:48:57Z</time>
      </trkpt>
      <trkpt lat="48.74087" lon="6.94558">
        <ele>271.6</ele>
        <time>2023-11-05T16:49:03Z</time>
      </trkpt>
      <trkpt lat="48.74088" lon="6.94542">
        <ele>271.6</ele>
        <time>2023-11-05T16:49:06Z</time>
      </trkpt>
      <trkpt lat="48.74104" lon="6.94531">
        <ele>271.3</ele>
        <time>2023-11-05T16:49:11Z</time>
      </trkpt>
      <trkpt lat="48.74124" lon="6.94529">
        <ele>271</ele>
        <time>2023-11-05T16:49:17Z</time>
      </trkpt>
      <trkpt lat="48.74143" lon="6.9453">
        <ele>270.6</ele>
        <time>2023-11-05T16:49:23Z</time>
      </trkpt>
      <trkpt lat="48.74159" lon="6.94519">
        <ele>270.2</ele>
        <time>2023-11-05T16:49:29Z</time>
      </trkpt>
      <trkpt lat="48.74165" lon="6.94492">
        <ele>269.7</ele>
        <time>2023-11-05T16:49:36Z</time>
      </trkpt>
      <trkpt lat="48.74168" lon="6.94462">
        <ele>269</ele>
        <time>2023-11-05T16:49:43Z</time>
      </trkpt>
      <trkpt lat="48.74173" lon="6.94433">
        <ele>268.4</ele>
        <time>2023-11-05T16:49:50Z</time>
      </trkpt>
      <trkpt lat="48.74178" lon="6.94407">
        <ele>267.8</ele>
        <time>2023-11-05T16:49:56Z</time>
      </trkpt>
      <trkpt lat="48.74184" lon="6.94378">
        <ele>267.2</ele>
        <time>2023-11-05T16:50:02Z</time>
      </trkpt>
      <trkpt lat="48.74191" lon="6.94352">
        <ele>266.7</ele>
        <time>2023-11-05T16:50:08Z</time>
      </trkpt>
      <trkpt lat="48.74197" lon="6.94325">
        <ele>266.3</ele>
        <time>2023-11-05T16:50:14Z</time>
      </trkpt>
      <trkpt lat="48.74202" lon="6.94298">
        <ele>265.9</ele>
        <time>2023-11-05T16:50:20Z</time>
      </trkpt>
      <trkpt lat="48.74208" lon="6.94268">
        <ele>265.9</ele>
        <time>2023-11-05T16:50:26Z</time>
      </trkpt>
      <trkpt lat="48.74222" lon="6.94251">
        <ele>266.1</ele>
        <time>2023-11-05T16:50:32Z</time>
      </trkpt>
      <trkpt lat="48.7424" lon="6.94249">
        <ele>266</ele>
        <time>2023-11-05T16:50:38Z</time>
      </trkpt>
      <trkpt lat="48.7426" lon="6.94251">
        <ele>265.7</ele>
        <time>2023-11-05T16:50:45Z</time>
      </trkpt>
      <trkpt lat="48.74281" lon="6.94255">
        <ele>265</ele>
        <time>2023-11-05T16:50:52Z</time>
      </trkpt>
      <trkpt lat="48.74301" lon="6.94257">
        <ele>264.2</ele>
        <time>2023-11-05T16:50:58Z</time>
      </trkpt>
      <trkpt lat="48.74321" lon="6.94256">
        <ele>263.7</ele>
        <time>2023-11-05T16:51:04Z</time>
      </trkpt>
      <trkpt lat="48.74341" lon="6.94256">
        <ele>263.5</ele>
        <time>2023-11-05T16:51:11Z</time>
      </trkpt>
      <trkpt lat="48.74362" lon="6.94254">
        <ele>263.5</ele>
        <time>2023-11-05T16:51:18Z</time>
      </trkpt>
      <trkpt lat="48.74382" lon="6.94251">
        <ele>263.5</ele>
        <time>2023-11-05T16:51:25Z</time>
      </trkpt>
      <trkpt lat="48.74402" lon="6.94247">
        <ele>263.5</ele>
        <time>2023-11-05T16:51:32Z</time>
      </trkpt>
      <trkpt lat="48.74423" lon="6.94246">
        <ele>263.5</ele>
        <time>2023-11-05T16:51:39Z</time>
      </trkpt>
      <trkpt lat="48.74441" lon="6.94243">
        <ele>263.5</ele>
        <time>2023-11-05T16:51:46Z</time>
      </trkpt>
      <trkpt lat="48.74461" lon="6.9424">
        <ele>263.5</ele>
        <time>2023-11-05T16:51:53Z</time>
      </trkpt>
      <trkpt lat="48.74482" lon="6.94236">
        <ele>263.5</ele>
        <time>2023-11-05T16:52:00Z</time>
      </trkpt>
      <trkpt lat="48.745" lon="6.94232">
        <ele>263.5</ele>
        <time>2023-11-05T16:52:06Z</time>
      </trkpt>
      <trkpt lat="48.74519" lon="6.94228">
        <ele>263.5</ele>
        <time>2023-11-05T16:52:12Z</time>
      </trkpt>
      <trkpt lat="48.74538" lon="6.9423">
        <ele>263.5</ele>
        <time>2023-11-05T16:52:19Z</time>
      </trkpt>
      <trkpt lat="48.7456" lon="6.94234">
        <ele>263.6</ele>
        <time>2023-11-05T16:52:27Z</time>
      </trkpt>
      <trkpt lat="48.7458" lon="6.94235">
        <ele>263.7</ele>
        <time>2023-11-05T16:52:34Z</time>
      </trkpt>
      <trkpt lat="48.746" lon="6.94236">
        <ele>263.7</ele>
        <time>2023-11-05T16:52:42Z</time>
      </trkpt>
      <trkpt lat="48.7462" lon="6.94238">
        <ele>263.7</ele>
        <time>2023-11-05T16:52:49Z</time>
      </trkpt>
      <trkpt lat="48.7464" lon="6.94237">
        <ele>263.7</ele>
        <time>2023-11-05T16:52:57Z</time>
      </trkpt>
      <trkpt lat="48.74659" lon="6.94238">
        <ele>263.8</ele>
        <time>2023-11-05T16:53:04Z</time>
      </trkpt>
      <trkpt lat="48.74678" lon="6.94237">
        <ele>263.9</ele>
        <time>2023-11-05T16:53:11Z</time>
      </trkpt>
      <trkpt lat="48.74698" lon="6.94234">
        <ele>263.8</ele>
        <time>2023-11-05T16:53:18Z</time>
      </trkpt>
      <trkpt lat="48.74718" lon="6.94231">
        <ele>263.8</ele>
        <time>2023-11-05T16:53:25Z</time>
      </trkpt>
      <trkpt lat="48.74738" lon="6.94227">
        <ele>263.9</ele>
        <time>2023-11-05T16:53:32Z</time>
      </trkpt>
      <trkpt lat="48.74756" lon="6.94224">
        <ele>263.9</ele>
        <time>2023-11-05T16:53:39Z</time>
      </trkpt>
      <trkpt lat="48.74775" lon="6.94218">
        <ele>263.8</ele>
        <time>2023-11-05T16:53:46Z</time>
      </trkpt>
      <trkpt lat="48.74796" lon="6.94212">
        <ele>263.6</ele>
        <time>2023-11-05T16:53:53Z</time>
      </trkpt>
      <trkpt lat="48.74815" lon="6.94208">
        <ele>263.6</ele>
        <time>2023-11-05T16:53:59Z</time>
      </trkpt>
      <trkpt lat="48.74835" lon="6.94206">
        <ele>263.6</ele>
        <time>2023-11-05T16:54:05Z</time>
      </trkpt>
      <trkpt lat="48.74856" lon="6.94206">
        <ele>263.6</ele>
        <time>2023-11-05T16:54:12Z</time>
      </trkpt>
      <trkpt lat="48.74874" lon="6.94206">
        <ele>263.6</ele>
        <time>2023-11-05T16:54:18Z</time>
      </trkpt>
      <trkpt lat="48.74893" lon="6.94203">
        <ele>263.6</ele>
        <time>2023-11-05T16:54:24Z</time>
      </trkpt>
      <trkpt lat="48.74913" lon="6.94203">
        <ele>263.6</ele>
        <time>2023-11-05T16:54:31Z</time>
      </trkpt>
      <trkpt lat="48.74932" lon="6.94202">
        <ele>263.6</ele>
        <time>2023-11-05T16:54:37Z</time>
      </trkpt>
      <trkpt lat="48.7495" lon="6.942">
        <ele>263.5</ele>
        <time>2023-11-05T16:54:43Z</time>
      </trkpt>
      <trkpt lat="48.74968" lon="6.94199">
        <ele>263.5</ele>
        <time>2023-11-05T16:54:49Z</time>
      </trkpt>
      <trkpt lat="48.74987" lon="6.94196">
        <ele>263.4</ele>
        <time>2023-11-05T16:54:55Z</time>
      </trkpt>
      <trkpt lat="48.75005" lon="6.94193">
        <ele>263.4</ele>
        <time>2023-11-05T16:55:01Z</time>
      </trkpt>
      <trkpt lat="48.75026" lon="6.94189">
        <ele>263.4</ele>
        <time>2023-11-05T16:55:08Z</time>
      </trkpt>
      <trkpt lat="48.75045" lon="6.94185">
        <ele>263.5</ele>
        <time>2023-11-05T16:55:15Z</time>
      </trkpt>
      <trkpt lat="48.75066" lon="6.94181">
        <ele>263.5</ele>
        <time>2023-11-05T16:55:22Z</time>
      </trkpt>
      <trkpt lat="48.75085" lon="6.94178">
        <ele>263.6</ele>
        <time>2023-11-05T16:55:28Z</time>
      </trkpt>
      <trkpt lat="48.75103" lon="6.94174">
        <ele>263.7</ele>
        <time>2023-11-05T16:55:34Z</time>
      </trkpt>
      <trkpt lat="48.75122" lon="6.94172">
        <ele>263.8</ele>
        <time>2023-11-05T16:55:40Z</time>
      </trkpt>
      <trkpt lat="48.7514" lon="6.94171">
        <ele>263.8</ele>
        <time>2023-11-05T16:55:46Z</time>
      </trkpt>
      <trkpt lat="48.75159" lon="6.94169">
        <ele>263.6</ele>
        <time>2023-11-05T16:55:52Z</time>
      </trkpt>
      <trkpt lat="48.75178" lon="6.94168">
        <ele>263.5</ele>
        <time>2023-11-05T16:55:58Z</time>
      </trkpt>
      <trkpt lat="48.75197" lon="6.94164">
        <ele>263.5</ele>
        <time>2023-11-05T16:56:04Z</time>
      </trkpt>
      <trkpt lat="48.75215" lon="6.9416">
        <ele>263.6</ele>
        <time>2023-11-05T16:56:10Z</time>
      </trkpt>
      <trkpt lat="48.75232" lon="6.94156">
        <ele>263.7</ele>
        <time>2023-11-05T16:56:16Z</time>
      </trkpt>
      <trkpt lat="48.7525" lon="6.94151">
        <ele>263.7</ele>
        <time>2023-11-05T16:56:22Z</time>
      </trkpt>
      <trkpt lat="48.75269" lon="6.9415">
        <ele>263.6</ele>
        <time>2023-11-05T16:56:28Z</time>
      </trkpt>
      <trkpt lat="48.7529" lon="6.9415">
        <ele>263.5</ele>
        <time>2023-11-05T16:56:35Z</time>
      </trkpt>
      <trkpt lat="48.7531" lon="6.94149">
        <ele>263.4</ele>
        <time>2023-11-05T16:56:42Z</time>
      </trkpt>
      <trkpt lat="48.75331" lon="6.94144">
        <ele>263.4</ele>
        <time>2023-11-05T16:56:49Z</time>
      </trkpt>
      <trkpt lat="48.75349" lon="6.94138">
        <ele>263.3</ele>
        <time>2023-11-05T16:56:55Z</time>
      </trkpt>
      <trkpt lat="48.75367" lon="6.94133">
        <ele>263.3</ele>
        <time>2023-11-05T16:57:01Z</time>
      </trkpt>
      <trkpt lat="48.75386" lon="6.94127">
        <ele>263.3</ele>
        <time>2023-11-05T16:57:08Z</time>
      </trkpt>
      <trkpt lat="48.75406" lon="6.94122">
        <ele>263.3</ele>
        <time>2023-11-05T16:57:15Z</time>
      </trkpt>
      <trkpt lat="48.75426" lon="6.94116">
        <ele>263.2</ele>
        <time>2023-11-05T16:57:22Z</time>
      </trkpt>
      <trkpt lat="48.75445" lon="6.94109">
        <ele>263.2</ele>
        <time>2023-11-05T16:57:29Z</time>
      </trkpt>
      <trkpt lat="48.75464" lon="6.94101">
        <ele>263.1</ele>
        <time>2023-11-05T16:57:36Z</time>
      </trkpt>
      <trkpt lat="48.75483" lon="6.94094">
        <ele>263.2</ele>
        <time>2023-11-05T16:57:43Z</time>
      </trkpt>
      <trkpt lat="48.75502" lon="6.94085">
        <ele>263.2</ele>
        <time>2023-11-05T16:57:50Z</time>
      </trkpt>
      <trkpt lat="48.7552" lon="6.94076">
        <ele>263.2</ele>
        <time>2023-11-05T16:57:57Z</time>
      </trkpt>
      <trkpt lat="48.75538" lon="6.9407">
        <ele>263.1</ele>
        <time>2023-11-05T16:58:03Z</time>
      </trkpt>
      <trkpt lat="48.75558" lon="6.94059">
        <ele>263.1</ele>
        <time>2023-11-05T16:58:10Z</time>
      </trkpt>
      <trkpt lat="48.75577" lon="6.94047">
        <ele>263.2</ele>
        <time>2023-11-05T16:58:17Z</time>
      </trkpt>
      <trkpt lat="48.75594" lon="6.94038">
        <ele>263.3</ele>
        <time>2023-11-05T16:58:23Z</time>
      </trkpt>
      <trkpt lat="48.75611" lon="6.94027">
        <ele>263.4</ele>
        <time>2023-11-05T16:58:29Z</time>
      </trkpt>
      <trkpt lat="48.75627" lon="6.94016">
        <ele>263.4</ele>
        <time>2023-11-05T16:58:35Z</time>
      </trkpt>
      <trkpt lat="48.75645" lon="6.94004">
        <ele>263.4</ele>
        <time>2023-11-05T16:58:42Z</time>
      </trkpt>
      <trkpt lat="48.75664" lon="6.93991">
        <ele>263.4</ele>
        <time>2023-11-05T16:58:49Z</time>
      </trkpt>
      <trkpt lat="48.75683" lon="6.93979">
        <ele>263.4</ele>
        <time>2023-11-05T16:58:56Z</time>
      </trkpt>
      <trkpt lat="48.75702" lon="6.93969">
        <ele>263.4</ele>
        <time>2023-11-05T16:59:03Z</time>
      </trkpt>
      <trkpt lat="48.75721" lon="6.93956">
        <ele>263.4</ele>
        <time>2023-11-05T16:59:10Z</time>
      </trkpt>
      <trkpt lat="48.75739" lon="6.93944">
        <ele>263.5</ele>
        <time>2023-11-05T16:59:17Z</time>
      </trkpt>
      <trkpt lat="48.75756" lon="6.93934">
        <ele>263.4</ele>
        <time>2023-11-05T16:59:23Z</time>
      </trkpt>
      <trkpt lat="48.75776" lon="6.93924">
        <ele>263.4</ele>
        <time>2023-11-05T16:59:30Z</time>
      </trkpt>
      <trkpt lat="48.75787" lon="6.93919">
        <ele>263.4</ele>
        <time>2023-11-05T16:59:34Z</time>
      </trkpt>
      <trkpt lat="48.75794" lon="6.93918">
        <ele>263.4</ele>
        <time>2023-11-05T17:00:12Z</time>
      </trkpt>
      <trkpt lat="48.75812" lon="6.93909">
        <ele>263.4</ele>
        <time>2023-11-05T17:00:19Z</time>
      </trkpt>
      <trkpt lat="48.75831" lon="6.93896">
        <ele>263.3</ele>
        <time>2023-11-05T17:00:26Z</time>
      </trkpt>
      <trkpt lat="48.75848" lon="6.93885">
        <ele>263.3</ele>
        <time>2023-11-05T17:00:32Z</time>
      </trkpt>
      <trkpt lat="48.75865" lon="6.93874">
        <ele>263.3</ele>
        <time>2023-11-05T17:00:38Z</time>
      </trkpt>
      <trkpt lat="48.75883" lon="6.93865">
        <ele>263.3</ele>
        <time>2023-11-05T17:00:44Z</time>
      </trkpt>
      <trkpt lat="48.759" lon="6.93855">
        <ele>263.4</ele>
        <time>2023-11-05T17:00:50Z</time>
      </trkpt>
      <trkpt lat="48.75919" lon="6.93842">
        <ele>263.6</ele>
        <time>2023-11-05T17:00:57Z</time>
      </trkpt>
      <trkpt lat="48.75936" lon="6.93829">
        <ele>263.7</ele>
        <time>2023-11-05T17:01:04Z</time>
      </trkpt>
      <trkpt lat="48.75953" lon="6.93816">
        <ele>263.8</ele>
        <time>2023-11-05T17:01:11Z</time>
      </trkpt>
      <trkpt lat="48.75972" lon="6.93806">
        <ele>263.8</ele>
        <time>2023-11-05T17:01:18Z</time>
      </trkpt>
      <trkpt lat="48.75991" lon="6.93793">
        <ele>263.8</ele>
        <time>2023-11-05T17:01:25Z</time>
      </trkpt>
      <trkpt lat="48.76009" lon="6.9378">
        <ele>263.8</ele>
        <time>2023-11-05T17:01:32Z</time>
      </trkpt>
      <trkpt lat="48.76025" lon="6.93769">
        <ele>263.8</ele>
        <time>2023-11-05T17:01:39Z</time>
      </trkpt>
      <trkpt lat="48.76043" lon="6.93757">
        <ele>263.8</ele>
        <time>2023-11-05T17:01:46Z</time>
      </trkpt>
      <trkpt lat="48.7606" lon="6.93747">
        <ele>263.8</ele>
        <time>2023-11-05T17:01:52Z</time>
      </trkpt>
      <trkpt lat="48.76077" lon="6.93734">
        <ele>263.8</ele>
        <time>2023-11-05T17:01:58Z</time>
      </trkpt>
      <trkpt lat="48.76095" lon="6.93723">
        <ele>263.8</ele>
        <time>2023-11-05T17:02:04Z</time>
      </trkpt>
      <trkpt lat="48.76113" lon="6.93713">
        <ele>263.8</ele>
        <time>2023-11-05T17:02:10Z</time>
      </trkpt>
      <trkpt lat="48.76124" lon="6.93716">
        <ele>263.8</ele>
        <time>2023-11-05T17:02:14Z</time>
      </trkpt>
      <trkpt lat="48.76133" lon="6.93744">
        <ele>264.2</ele>
        <time>2023-11-05T17:02:20Z</time>
      </trkpt>
      <trkpt lat="48.76143" lon="6.93772">
        <ele>264.3</ele>
        <time>2023-11-05T17:02:26Z</time>
      </trkpt>
      <trkpt lat="48.76154" lon="6.93796">
        <ele>264</ele>
        <time>2023-11-05T17:02:32Z</time>
      </trkpt>
      <trkpt lat="48.7617" lon="6.93808">
        <ele>263.5</ele>
        <time>2023-11-05T17:02:38Z</time>
      </trkpt>
      <trkpt lat="48.7619" lon="6.93805">
        <ele>263</ele>
        <time>2023-11-05T17:02:45Z</time>
      </trkpt>
      <trkpt lat="48.76209" lon="6.93801">
        <ele>262.7</ele>
        <time>2023-11-05T17:02:51Z</time>
      </trkpt>
      <trkpt lat="48.76228" lon="6.93799">
        <ele>262.7</ele>
        <time>2023-11-05T17:02:57Z</time>
      </trkpt>
      <trkpt lat="48.7625" lon="6.93798">
        <ele>262.9</ele>
        <time>2023-11-05T17:03:04Z</time>
      </trkpt>
      <trkpt lat="48.7627" lon="6.93797">
        <ele>263.2</ele>
        <time>2023-11-05T17:03:11Z</time>
      </trkpt>
      <trkpt lat="48.7629" lon="6.93795">
        <ele>263.6</ele>
        <time>2023-11-05T17:03:18Z</time>
      </trkpt>
      <trkpt lat="48.7631" lon="6.93793">
        <ele>264</ele>
        <time>2023-11-05T17:03:25Z</time>
      </trkpt>
      <trkpt lat="48.76331" lon="6.93792">
        <ele>264.4</ele>
        <time>2023-11-05T17:03:32Z</time>
      </trkpt>
      <trkpt lat="48.76352" lon="6.93793">
        <ele>264.8</ele>
        <time>2023-11-05T17:03:39Z</time>
      </trkpt>
      <trkpt lat="48.76373" lon="6.93794">
        <ele>265.2</ele>
        <time>2023-11-05T17:03:46Z</time>
      </trkpt>
      <trkpt lat="48.76393" lon="6.93793">
        <ele>265.5</ele>
        <time>2023-11-05T17:03:53Z</time>
      </trkpt>
      <trkpt lat="48.76412" lon="6.93791">
        <ele>265.5</ele>
        <time>2023-11-05T17:03:59Z</time>
      </trkpt>
      <trkpt lat="48.7643" lon="6.93789">
        <ele>265.4</ele>
        <time>2023-11-05T17:04:05Z</time>
      </trkpt>
      <trkpt lat="48.76449" lon="6.9379">
        <ele>265.3</ele>
        <time>2023-11-05T17:04:11Z</time>
      </trkpt>
      <trkpt lat="48.76468" lon="6.93789">
        <ele>265.2</ele>
        <time>2023-11-05T17:04:17Z</time>
      </trkpt>
      <trkpt lat="48.76486" lon="6.93786">
        <ele>265.1</ele>
        <time>2023-11-05T17:04:23Z</time>
      </trkpt>
      <trkpt lat="48.76507" lon="6.93783">
        <ele>265</ele>
        <time>2023-11-05T17:04:30Z</time>
      </trkpt>
      <trkpt lat="48.76528" lon="6.93782">
        <ele>265</ele>
        <time>2023-11-05T17:04:37Z</time>
      </trkpt>
      <trkpt lat="48.76548" lon="6.9378">
        <ele>265.1</ele>
        <time>2023-11-05T17:04:44Z</time>
      </trkpt>
      <trkpt lat="48.76569" lon="6.9378">
        <ele>265.3</ele>
        <time>2023-11-05T17:04:51Z</time>
      </trkpt>
      <trkpt lat="48.76589" lon="6.93779">
        <ele>265.7</ele>
        <time>2023-11-05T17:04:58Z</time>
      </trkpt>
      <trkpt lat="48.76607" lon="6.93778">
        <ele>266</ele>
        <time>2023-11-05T17:05:04Z</time>
      </trkpt>
      <trkpt lat="48.76627" lon="6.93779">
        <ele>266.5</ele>
        <time>2023-11-05T17:05:11Z</time>
      </trkpt>
      <trkpt lat="48.76647" lon="6.93781">
        <ele>267.1</ele>
        <time>2023-11-05T17:05:18Z</time>
      </trkpt>
      <trkpt lat="48.76668" lon="6.93784">
        <ele>267.4</ele>
        <time>2023-11-05T17:05:25Z</time>
      </trkpt>
      <trkpt lat="48.76687" lon="6.93792">
        <ele>267.3</ele>
        <time>2023-11-05T17:05:32Z</time>
      </trkpt>
      <trkpt lat="48.76703" lon="6.93811">
        <ele>266.7</ele>
        <time>2023-11-05T17:05:38Z</time>
      </trkpt>
      <trkpt lat="48.76717" lon="6.93832">
        <ele>266</ele>
        <time>2023-11-05T17:05:44Z</time>
      </trkpt>
      <trkpt lat="48.76729" lon="6.93853">
        <ele>265.2</ele>
        <time>2023-11-05T17:05:50Z</time>
      </trkpt>
      <trkpt lat="48.76742" lon="6.93872">
        <ele>264.5</ele>
        <time>2023-11-05T17:05:56Z</time>
      </trkpt>
      <trkpt lat="48.76755" lon="6.93893">
        <ele>264.2</ele>
        <time>2023-11-05T17:06:02Z</time>
      </trkpt>
      <trkpt lat="48.76768" lon="6.93913">
        <ele>264.1</ele>
        <time>2023-11-05T17:06:08Z</time>
      </trkpt>
      <trkpt lat="48.76783" lon="6.93933">
        <ele>264.2</ele>
        <time>2023-11-05T17:06:15Z</time>
      </trkpt>
      <trkpt lat="48.76798" lon="6.93953">
        <ele>264.4</ele>
        <time>2023-11-05T17:06:22Z</time>
      </trkpt>
      <trkpt lat="48.76811" lon="6.93976">
        <ele>264.7</ele>
        <time>2023-11-05T17:06:29Z</time>
      </trkpt>
      <trkpt lat="48.76824" lon="6.93996">
        <ele>265</ele>
        <time>2023-11-05T17:06:36Z</time>
      </trkpt>
      <trkpt lat="48.76837" lon="6.94015">
        <ele>265.5</ele>
        <time>2023-11-05T17:06:43Z</time>
      </trkpt>
      <trkpt lat="48.76851" lon="6.94037">
        <ele>266.1</ele>
        <time>2023-11-05T17:06:51Z</time>
      </trkpt>
      <trkpt lat="48.76864" lon="6.94056">
        <ele>266.9</ele>
        <time>2023-11-05T17:06:58Z</time>
      </trkpt>
      <trkpt lat="48.76879" lon="6.94074">
        <ele>267.8</ele>
        <time>2023-11-05T17:07:05Z</time>
      </trkpt>
      <trkpt lat="48.76893" lon="6.94094">
        <ele>268.8</ele>
        <time>2023-11-05T17:07:12Z</time>
      </trkpt>
      <trkpt lat="48.76908" lon="6.94114">
        <ele>269.9</ele>
        <time>2023-11-05T17:07:19Z</time>
      </trkpt>
      <trkpt lat="48.76923" lon="6.94134">
        <ele>270.8</ele>
        <time>2023-11-05T17:07:26Z</time>
      </trkpt>
      <trkpt lat="48.76938" lon="6.94154">
        <ele>271.4</ele>
        <time>2023-11-05T17:07:33Z</time>
      </trkpt>
      <trkpt lat="48.76951" lon="6.94175">
        <ele>271.8</ele>
        <time>2023-11-05T17:07:40Z</time>
      </trkpt>
      <trkpt lat="48.76965" lon="6.94195">
        <ele>272.2</ele>
        <time>2023-11-05T17:07:47Z</time>
      </trkpt>
      <trkpt lat="48.76979" lon="6.94215">
        <ele>272.4</ele>
        <time>2023-11-05T17:07:54Z</time>
      </trkpt>
      <trkpt lat="48.76994" lon="6.94235">
        <ele>272.5</ele>
        <time>2023-11-05T17:08:01Z</time>
      </trkpt>
      <trkpt lat="48.77008" lon="6.94256">
        <ele>272.6</ele>
        <time>2023-11-05T17:08:08Z</time>
      </trkpt>
      <trkpt lat="48.77022" lon="6.94274">
        <ele>272.8</ele>
        <time>2023-11-05T17:08:14Z</time>
      </trkpt>
      <trkpt lat="48.77032" lon="6.94292">
        <ele>272.9</ele>
        <time>2023-11-05T17:08:20Z</time>
      </trkpt>
      <trkpt lat="48.77019" lon="6.94313">
        <ele>272.5</ele>
        <time>2023-11-05T17:08:28Z</time>
      </trkpt>
      <trkpt lat="48.77003" lon="6.9433">
        <ele>272</ele>
        <time>2023-11-05T17:08:35Z</time>
      </trkpt>
      <trkpt lat="48.76989" lon="6.94351">
        <ele>271.6</ele>
        <time>2023-11-05T17:08:42Z</time>
      </trkpt>
      <trkpt lat="48.76974" lon="6.9437">
        <ele>271.2</ele>
        <time>2023-11-05T17:08:49Z</time>
      </trkpt>
      <trkpt lat="48.76961" lon="6.94393">
        <ele>270.8</ele>
        <time>2023-11-05T17:08:55Z</time>
      </trkpt>
      <trkpt lat="48.76947" lon="6.94416">
        <ele>270.2</ele>
        <time>2023-11-05T17:09:01Z</time>
      </trkpt>
      <trkpt lat="48.76933" lon="6.94434">
        <ele>269.7</ele>
        <time>2023-11-05T17:09:07Z</time>
      </trkpt>
      <trkpt lat="48.76919" lon="6.94451">
        <ele>269.1</ele>
        <time>2023-11-05T17:09:13Z</time>
      </trkpt>
      <trkpt lat="48.76903" lon="6.94469">
        <ele>268.4</ele>
        <time>2023-11-05T17:09:20Z</time>
      </trkpt>
      <trkpt lat="48.76891" lon="6.94493">
        <ele>267.7</ele>
        <time>2023-11-05T17:09:27Z</time>
      </trkpt>
      <trkpt lat="48.76877" lon="6.94512">
        <ele>267</ele>
        <time>2023-11-05T17:09:33Z</time>
      </trkpt>
      <trkpt lat="48.76864" lon="6.94533">
        <ele>266.2</ele>
        <time>2023-11-05T17:09:39Z</time>
      </trkpt>
      <trkpt lat="48.76849" lon="6.94553">
        <ele>265.3</ele>
        <time>2023-11-05T17:09:46Z</time>
      </trkpt>
      <trkpt lat="48.76835" lon="6.94571">
        <ele>264.7</ele>
        <time>2023-11-05T17:09:53Z</time>
      </trkpt>
      <trkpt lat="48.76816" lon="6.94576">
        <ele>264.3</ele>
        <time>2023-11-05T17:10:00Z</time>
      </trkpt>
      <trkpt lat="48.76798" lon="6.94566">
        <ele>264.2</ele>
        <time>2023-11-05T17:10:07Z</time>
      </trkpt>
      <trkpt lat="48.76782" lon="6.9455">
        <ele>263.9</ele>
        <time>2023-11-05T17:10:14Z</time>
      </trkpt>
      <trkpt lat="48.7678" lon="6.9455">
        <ele>263.8</ele>
        <time>2023-11-05T17:10:15Z</time>
      </trkpt>
      <trkpt lat="48.76771" lon="6.94576">
        <ele>263</ele>
        <time>2023-11-05T17:10:23Z</time>
      </trkpt>
      <trkpt lat="48.76765" lon="6.94602">
        <ele>262.2</ele>
        <time>2023-11-05T17:10:32Z</time>
      </trkpt>
      <trkpt lat="48.76759" lon="6.94628">
        <ele>261.6</ele>
        <time>2023-11-05T17:10:41Z</time>
      </trkpt>
      <trkpt lat="48.76754" lon="6.94656">
        <ele>261</ele>
        <time>2023-11-05T17:10:50Z</time>
      </trkpt>
      <trkpt lat="48.76764" lon="6.94682">
        <ele>260.5</ele>
        <time>2023-11-05T17:10:58Z</time>
      </trkpt>
      <trkpt lat="48.76757" lon="6.94709">
        <ele>260.4</ele>
        <time>2023-11-05T17:11:04Z</time>
      </trkpt>
      <trkpt lat="48.76747" lon="6.94732">
        <ele>260.7</ele>
        <time>2023-11-05T17:11:09Z</time>
      </trkpt>
      <trkpt lat="48.76735" lon="6.94754">
        <ele>261.3</ele>
        <time>2023-11-05T17:11:15Z</time>
      </trkpt>
      <trkpt lat="48.76724" lon="6.94777">
        <ele>262</ele>
        <time>2023-11-05T17:11:22Z</time>
      </trkpt>
      <trkpt lat="48.76713" lon="6.94799">
        <ele>262.9</ele>
        <time>2023-11-05T17:11:29Z</time>
      </trkpt>
      <trkpt lat="48.767" lon="6.94822">
        <ele>263.9</ele>
        <time>2023-11-05T17:11:36Z</time>
      </trkpt>
      <trkpt lat="48.76689" lon="6.94849">
        <ele>264.6</ele>
        <time>2023-11-05T17:11:43Z</time>
      </trkpt>
      <trkpt lat="48.76681" lon="6.94876">
        <ele>265</ele>
        <time>2023-11-05T17:11:50Z</time>
      </trkpt>
      <trkpt lat="48.76676" lon="6.94902">
        <ele>265.1</ele>
        <time>2023-11-05T17:11:57Z</time>
      </trkpt>
      <trkpt lat="48.76672" lon="6.94929">
        <ele>265.2</ele>
        <time>2023-11-05T17:12:04Z</time>
      </trkpt>
      <trkpt lat="48.76666" lon="6.94957">
        <ele>265.5</ele>
        <time>2023-11-05T17:12:11Z</time>
      </trkpt>
      <trkpt lat="48.76659" lon="6.94987">
        <ele>265.8</ele>
        <time>2023-11-05T17:12:18Z</time>
      </trkpt>
      <trkpt lat="48.7665" lon="6.95014">
        <ele>266.2</ele>
        <time>2023-11-05T17:12:25Z</time>
      </trkpt>
      <trkpt lat="48.76637" lon="6.95039">
        <ele>266.3</ele>
        <time>2023-11-05T17:12:32Z</time>
      </trkpt>
      <trkpt lat="48.76623" lon="6.95058">
        <ele>266.2</ele>
        <time>2023-11-05T17:12:38Z</time>
      </trkpt>
      <trkpt lat="48.76608" lon="6.95074">
        <ele>265.8</ele>
        <time>2023-11-05T17:12:44Z</time>
      </trkpt>
      <trkpt lat="48.76593" lon="6.95089">
        <ele>265.4</ele>
        <time>2023-11-05T17:12:50Z</time>
      </trkpt>
      <trkpt lat="48.76578" lon="6.95107">
        <ele>265.1</ele>
        <time>2023-11-05T17:12:56Z</time>
      </trkpt>
      <trkpt lat="48.76564" lon="6.95127">
        <ele>265</ele>
        <time>2023-11-05T17:13:02Z</time>
      </trkpt>
      <trkpt lat="48.76553" lon="6.95152">
        <ele>265.1</ele>
        <time>2023-11-05T17:13:09Z</time>
      </trkpt>
      <trkpt lat="48.76545" lon="6.9518">
        <ele>265.4</ele>
        <time>2023-11-05T17:13:16Z</time>
      </trkpt>
      <trkpt lat="48.76536" lon="6.95207">
        <ele>265.7</ele>
        <time>2023-11-05T17:13:23Z</time>
      </trkpt>
      <trkpt lat="48.76528" lon="6.95232">
        <ele>265.7</ele>
        <time>2023-11-05T17:13:30Z</time>
      </trkpt>
      <trkpt lat="48.76515" lon="6.95256">
        <ele>265.7</ele>
        <time>2023-11-05T17:13:37Z</time>
      </trkpt>
      <trkpt lat="48.76499" lon="6.95269">
        <ele>265.6</ele>
        <time>2023-11-05T17:13:43Z</time>
      </trkpt>
      <trkpt lat="48.7648" lon="6.95272">
        <ele>265.2</ele>
        <time>2023-11-05T17:13:49Z</time>
      </trkpt>
      <trkpt lat="48.76461" lon="6.95278">
        <ele>264.9</ele>
        <time>2023-11-05T17:13:56Z</time>
      </trkpt>
      <trkpt lat="48.76443" lon="6.95283">
        <ele>264.7</ele>
        <time>2023-11-05T17:14:02Z</time>
      </trkpt>
      <trkpt lat="48.76424" lon="6.95286">
        <ele>264.6</ele>
        <time>2023-11-05T17:14:08Z</time>
      </trkpt>
      <trkpt lat="48.76406" lon="6.9529">
        <ele>264.6</ele>
        <time>2023-11-05T17:14:15Z</time>
      </trkpt>
      <trkpt lat="48.76386" lon="6.95293">
        <ele>264.5</ele>
        <time>2023-11-05T17:14:22Z</time>
      </trkpt>
      <trkpt lat="48.76368" lon="6.95296">
        <ele>264.7</ele>
        <time>2023-11-05T17:14:28Z</time>
      </trkpt>
      <trkpt lat="48.76348" lon="6.95302">
        <ele>264.8</ele>
        <time>2023-11-05T17:14:35Z</time>
      </trkpt>
      <trkpt lat="48.76329" lon="6.95308">
        <ele>264.9</ele>
        <time>2023-11-05T17:14:42Z</time>
      </trkpt>
      <trkpt lat="48.7631" lon="6.95316">
        <ele>265</ele>
        <time>2023-11-05T17:14:49Z</time>
      </trkpt>
      <trkpt lat="48.76292" lon="6.95324">
        <ele>265.1</ele>
        <time>2023-11-05T17:14:56Z</time>
      </trkpt>
      <trkpt lat="48.76275" lon="6.95335">
        <ele>265.2</ele>
        <time>2023-11-05T17:15:03Z</time>
      </trkpt>
      <trkpt lat="48.76258" lon="6.95349">
        <ele>265.4</ele>
        <time>2023-11-05T17:15:09Z</time>
      </trkpt>
      <trkpt lat="48.76242" lon="6.95364">
        <ele>265.5</ele>
        <time>2023-11-05T17:15:15Z</time>
      </trkpt>
      <trkpt lat="48.76225" lon="6.95381">
        <ele>265.5</ele>
        <time>2023-11-05T17:15:22Z</time>
      </trkpt>
      <trkpt lat="48.76209" lon="6.95396">
        <ele>265.5</ele>
        <time>2023-11-05T17:15:28Z</time>
      </trkpt>
      <trkpt lat="48.76193" lon="6.95414">
        <ele>265.6</ele>
        <time>2023-11-05T17:15:35Z</time>
      </trkpt>
      <trkpt lat="48.76177" lon="6.9543">
        <ele>265.8</ele>
        <time>2023-11-05T17:15:42Z</time>
      </trkpt>
      <trkpt lat="48.7616" lon="6.95448">
        <ele>266</ele>
        <time>2023-11-05T17:15:49Z</time>
      </trkpt>
      <trkpt lat="48.76144" lon="6.95464">
        <ele>266.3</ele>
        <time>2023-11-05T17:15:55Z</time>
      </trkpt>
      <trkpt lat="48.76129" lon="6.95483">
        <ele>266.5</ele>
        <time>2023-11-05T17:16:02Z</time>
      </trkpt>
      <trkpt lat="48.76113" lon="6.95501">
        <ele>266.6</ele>
        <time>2023-11-05T17:16:09Z</time>
      </trkpt>
      <trkpt lat="48.76096" lon="6.95519">
        <ele>266.6</ele>
        <time>2023-11-05T17:16:16Z</time>
      </trkpt>
      <trkpt lat="48.76076" lon="6.95518">
        <ele>266.8</ele>
        <time>2023-11-05T17:16:23Z</time>
      </trkpt>
      <trkpt lat="48.7606" lon="6.955">
        <ele>265.8</ele>
        <time>2023-11-05T17:16:29Z</time>
      </trkpt>
      <trkpt lat="48.76048" lon="6.95479">
        <ele>264.8</ele>
        <time>2023-11-05T17:16:35Z</time>
      </trkpt>
      <trkpt lat="48.76038" lon="6.95452">
        <ele>263.8</ele>
        <time>2023-11-05T17:16:41Z</time>
      </trkpt>
      <trkpt lat="48.76033" lon="6.95425">
        <ele>262.8</ele>
        <time>2023-11-05T17:16:47Z</time>
      </trkpt>
      <trkpt lat="48.76027" lon="6.95397">
        <ele>262.1</ele>
        <time>2023-11-05T17:16:53Z</time>
      </trkpt>
      <trkpt lat="48.76022" lon="6.95367">
        <ele>261.5</ele>
        <time>2023-11-05T17:17:00Z</time>
      </trkpt>
      <trkpt lat="48.76017" lon="6.95339">
        <ele>261</ele>
        <time>2023-11-05T17:17:07Z</time>
      </trkpt>
      <trkpt lat="48.76016" lon="6.95309">
        <ele>260.6</ele>
        <time>2023-11-05T17:17:14Z</time>
      </trkpt>
      <trkpt lat="48.76014" lon="6.95279">
        <ele>260</ele>
        <time>2023-11-05T17:17:20Z</time>
      </trkpt>
      <trkpt lat="48.7601" lon="6.95249">
        <ele>259.5</ele>
        <time>2023-11-05T17:17:27Z</time>
      </trkpt>
      <trkpt lat="48.76003" lon="6.95223">
        <ele>259.1</ele>
        <time>2023-11-05T17:17:33Z</time>
      </trkpt>
      <trkpt lat="48.75995" lon="6.95196">
        <ele>259</ele>
        <time>2023-11-05T17:17:40Z</time>
      </trkpt>
      <trkpt lat="48.75983" lon="6.95177">
        <ele>259</ele>
        <time>2023-11-05T17:17:47Z</time>
      </trkpt>
      <trkpt lat="48.75965" lon="6.95183">
        <ele>259.2</ele>
        <time>2023-11-05T17:17:54Z</time>
      </trkpt>
      <trkpt lat="48.75949" lon="6.95196">
        <ele>259.7</ele>
        <time>2023-11-05T17:18:01Z</time>
      </trkpt>
      <trkpt lat="48.75936" lon="6.95217">
        <ele>260.4</ele>
        <time>2023-11-05T17:18:08Z</time>
      </trkpt>
      <trkpt lat="48.75922" lon="6.95237">
        <ele>261.1</ele>
        <time>2023-11-05T17:18:15Z</time>
      </trkpt>
      <trkpt lat="48.75907" lon="6.95252">
        <ele>261.7</ele>
        <time>2023-11-05T17:18:22Z</time>
      </trkpt>
      <trkpt lat="48.75892" lon="6.95268">
        <ele>262.3</ele>
        <time>2023-11-05T17:18:29Z</time>
      </trkpt>
      <trkpt lat="48.75876" lon="6.95287">
        <ele>263</ele>
        <time>2023-11-05T17:18:37Z</time>
      </trkpt>
      <trkpt lat="48.75861" lon="6.95303">
        <ele>263.6</ele>
        <time>2023-11-05T17:18:44Z</time>
      </trkpt>
      <trkpt lat="48.75843" lon="6.95317">
        <ele>264.1</ele>
        <time>2023-11-05T17:18:52Z</time>
      </trkpt>
      <trkpt lat="48.75827" lon="6.95329">
        <ele>264.5</ele>
        <time>2023-11-05T17:18:59Z</time>
      </trkpt>
      <trkpt lat="48.75809" lon="6.9534">
        <ele>265</ele>
        <time>2023-11-05T17:19:06Z</time>
      </trkpt>
      <trkpt lat="48.75793" lon="6.95353">
        <ele>265.3</ele>
        <time>2023-11-05T17:19:12Z</time>
      </trkpt>
      <trkpt lat="48.75775" lon="6.95366">
        <ele>265.7</ele>
        <time>2023-11-05T17:19:19Z</time>
      </trkpt>
      <trkpt lat="48.75763" lon="6.9539">
        <ele>266.1</ele>
        <time>2023-11-05T17:19:26Z</time>
      </trkpt>
      <trkpt lat="48.75757" lon="6.95417">
        <ele>266.4</ele>
        <time>2023-11-05T17:19:33Z</time>
      </trkpt>
      <trkpt lat="48.7575" lon="6.95444">
        <ele>266.8</ele>
        <time>2023-11-05T17:19:40Z</time>
      </trkpt>
      <trkpt lat="48.75742" lon="6.95471">
        <ele>267.1</ele>
        <time>2023-11-05T17:19:47Z</time>
      </trkpt>
      <trkpt lat="48.75733" lon="6.95498">
        <ele>267.5</ele>
        <time>2023-11-05T17:19:54Z</time>
      </trkpt>
      <trkpt lat="48.75723" lon="6.95523">
        <ele>267.8</ele>
        <time>2023-11-05T17:20:01Z</time>
      </trkpt>
      <trkpt lat="48.75713" lon="6.9555">
        <ele>268.1</ele>
        <time>2023-11-05T17:20:08Z</time>
      </trkpt>
      <trkpt lat="48.75701" lon="6.95573">
        <ele>268.4</ele>
        <time>2023-11-05T17:20:15Z</time>
      </trkpt>
      <trkpt lat="48.75687" lon="6.95594">
        <ele>269.2</ele>
        <time>2023-11-05T17:20:22Z</time>
      </trkpt>
      <trkpt lat="48.75683" lon="6.95622">
        <ele>269.7</ele>
        <time>2023-11-05T17:20:29Z</time>
      </trkpt>
      <trkpt lat="48.75684" lon="6.95624">
        <ele>269.7</ele>
        <time>2023-11-05T17:20:30Z</time>
      </trkpt>
      <trkpt lat="48.75697" lon="6.95627">
        <ele>269.7</ele>
        <time>2023-11-05T17:20:36Z</time>
      </trkpt>
    </trkseg>
  </trk>
</gpx>